Главная страница
METAR-TAF:

METAR-TAF

Аэропорты :

Варшава, Польша

Варшавский аэропорт имени Фредерика Шопена

широта: 52-10N, долгота: 020-58E, высота над уровнем моря: 106 м

Текущие метеонаблюдения

Эта сводка был подготовлена 35 минут назад, в 11:30 UTC
Ветер 5 Узел от юго-восточный
Температура -1°C
Влажность 69%
Давление 1018 hPa
Видимость 10 км и более
Рассеянная облачность на высоте 1800 фута

METAR: EPWA 221130Z 13005KT 9999 BKN018 M01/M06 Q1018 NOSIG

Время: 13:05 (12:05 UTC)

Прогноз

Эта сводка был подготовлена 35 минут назад, в 11:30 UTC
Прогноз действительный с 22-го 12 UTC до 23-го 12 UTC
Ветер 7 Узел от юго-восточный
Видимость 10 км и более
Рассеянная облачность на высоте 1500 фута
временами
С 22-го 12 UTC до 23-го 12 UTC
Рассеянная облачность на высоте 1000 фута
Вероятность 40%
С 23-го 00 UTC до 23-го 07 UTC
Видимость: 3000 м
Рассеянная облачность на высоте 500 фута
дымка

TAF: EPWA 221130Z 2212/2312 13007KT 9999 BKN015 TEMPO 2212/2312 BKN010 PROB40 2300/2307 3000 BR BKN005

Метеонаблюдения и прогнозы для более 4000 аэропортов (сводки METAR и TAF).

Имеющиеся станции представлены на карте желтыми и красными точками.

Чтобы увидеть название станции, наведите на нее мышь.

Затем щелкните, чтобы увидеть метеонаблюдения и метеопрогнозы.

Управление картой: чтобы увеличить масштаб, щелкните зеленые кнопки с черным крестиком; чтобы уменьшить масштаб, щелкните зеленую кнопку с тире; для просмотра соседних карт щелкайте зеленые стрелки.


METAR-TAF: